Terminal Aerodrome Forecast
Issued by NWS

Home | Current Version | Previous Version | Graphics & Text | Print | Product List | Glossary On
Versions: 1 2 3 4 5 6 7 8 9 10 11 12 13 14 15 16 17 18 19 20 21 22 23 24 25 26 27 28 29 30 31 32 33 34 35 36 37 38 39
000
FTUS43 KGRB 111700
TAFRHI
TAF
KRHI 111737Z 1118/1218 21012G21KT P6SM SCT060 BKN090
     FM120300 21004KT P6SM BKN030 BKN070
      TEMPO 1206/1210 3SM BR SCT010 BKN020
     FM121000 24005KT 3SM BR VCSH SCT008 OVC012 PROB30 1214/1218 2SM
      TSRA BR OVC010CB=

USA.gov is the U.S. government's official web portal to all federal, state and local government web resources and services.